createdAt,value
2022-08-23T06:14:06.239Z,1010.31
2022-08-23T06:24:06.282Z,1010.27
2022-08-23T06:34:06.271Z,1010.46
2022-08-23T06:44:06.271Z,1010.43
2022-08-23T06:54:06.162Z,1010.44
2022-08-23T07:04:06.281Z,1010.42
2022-08-23T07:14:06.334Z,1010.48
2022-08-23T07:24:06.390Z,1010.40
2022-08-23T07:34:06.235Z,1010.36
2022-08-23T07:44:06.310Z,1010.59
2022-08-23T07:54:06.285Z,1010.48
2022-08-23T08:04:06.267Z,1010.62
2022-08-23T08:14:06.219Z,1010.63
2022-08-23T08:24:06.284Z,1010.49
2022-08-23T08:34:06.439Z,1010.44
2022-08-23T08:44:06.581Z,1010.49
2022-08-23T08:54:06.492Z,1010.43
2022-08-23T09:04:06.524Z,1010.45
2022-08-23T09:14:06.399Z,1010.50
2022-08-23T09:24:06.598Z,1010.48
2022-08-23T09:34:06.753Z,1010.45
2022-08-23T09:44:06.680Z,1010.46
2022-08-23T09:54:06.542Z,1010.39
2022-08-23T10:04:06.711Z,1010.24
2022-08-23T10:14:06.484Z,1010.25
2022-08-23T10:24:06.397Z,1010.20
2022-08-23T10:34:06.441Z,1010.11
2022-08-23T10:44:06.425Z,1010.17
2022-08-23T10:54:06.495Z,1010.09
2022-08-23T11:04:06.476Z,1010.13
2022-08-23T11:14:06.560Z,1009.99
2022-08-23T11:24:06.454Z,1010.06
2022-08-23T11:34:06.524Z,1009.95
2022-08-23T11:44:06.588Z,1010.04
2022-08-23T11:54:06.423Z,1009.85
2022-08-23T12:04:06.809Z,1009.77
2022-08-23T12:14:06.618Z,1009.86
2022-08-23T12:24:06.564Z,1009.76
2022-08-23T12:34:06.664Z,1009.62
2022-08-23T12:44:07.020Z,1009.57
2022-08-23T12:54:07.127Z,1009.50
2022-08-23T13:04:07.195Z,1009.62
2022-08-23T13:14:07.201Z,1009.52
2022-08-23T13:24:07.425Z,1009.56
2022-08-23T13:34:07.501Z,1009.44
2022-08-23T13:44:07.261Z,1009.48
2022-08-23T13:54:07.242Z,1009.39
2022-08-23T14:04:07.814Z,1009.36
2022-08-23T14:14:07.518Z,1009.33
2022-08-23T14:24:07.220Z,1009.33
2022-08-23T14:34:07.602Z,1009.26
2022-08-23T14:44:07.299Z,1009.18
2022-08-23T14:54:07.219Z,1009.25
2022-08-23T15:04:07.327Z,1009.20
2022-08-23T15:14:07.304Z,1009.11
2022-08-23T15:24:07.468Z,1009.13
2022-08-23T15:34:07.397Z,1009.02
2022-08-23T15:44:07.503Z,1009.09
2022-08-23T15:54:07.590Z,1009.03
2022-08-23T16:04:07.374Z,1009.10
2022-08-23T16:14:07.568Z,1009.02
2022-08-23T16:24:07.416Z,1009.10
2022-08-23T16:34:07.575Z,1009.02
2022-08-23T16:44:07.457Z,1008.95
2022-08-23T16:54:07.439Z,1009.04
2022-08-23T17:04:07.454Z,1009.01
2022-08-23T17:14:07.472Z,1008.98
2022-08-23T17:24:07.575Z,1009.07
2022-08-23T17:34:07.511Z,1009.18
2022-08-23T17:44:07.451Z,1009.40
2022-08-23T17:54:07.560Z,1009.51
2022-08-23T18:04:07.634Z,1009.60
2022-08-23T18:14:07.591Z,1009.71
2022-08-23T18:24:07.613Z,1009.77
2022-08-23T18:34:07.747Z,1009.82
2022-08-23T18:44:07.451Z,1009.95
2022-08-23T18:54:07.621Z,1009.97
2022-08-23T19:04:07.690Z,1010.12
2022-08-23T19:14:07.801Z,1010.21
